sensor_id;sensor_type;location;lat;lon;timestamp;P1;durP1;ratioP1;P2;durP2;ratioP2
59504;SDS011;45321;53.200;5.814;2022-08-18T00:02:11;14.68;;;7.35;;
59504;SDS011;45321;53.200;5.814;2022-08-18T00:04:45;15.13;;;7.95;;
59504;SDS011;45321;53.200;5.814;2022-08-18T00:07:13;14.68;;;8.20;;
59504;SDS011;45321;53.200;5.814;2022-08-18T00:09:41;14.20;;;7.85;;
59504;SDS011;45321;53.200;5.814;2022-08-18T00:14:54;11.40;;;8.40;;
59504;SDS011;45321;53.200;5.814;2022-08-18T00:17:23;12.77;;;7.90;;
59504;SDS011;45321;53.200;5.814;2022-08-18T00:19:49;11.98;;;8.50;;
59504;SDS011;45321;53.200;5.814;2022-08-18T00:22:16;16.90;;;8.90;;
59504;SDS011;45321;53.200;5.814;2022-08-18T00:24:46;15.70;;;8.80;;
59504;SDS011;45321;53.200;5.814;2022-08-18T00:27:14;14.00;;;8.50;;
59504;SDS011;45321;53.200;5.814;2022-08-18T00:29:53;15.32;;;8.80;;
59504;SDS011;45321;53.200;5.814;2022-08-18T00:32:24;14.13;;;8.75;;
59504;SDS011;45321;53.200;5.814;2022-08-18T00:35:03;15.57;;;8.43;;
59504;SDS011;45321;53.200;5.814;2022-08-18T00:37:40;12.82;;;8.43;;
59504;SDS011;45321;53.200;5.814;2022-08-18T00:40:07;15.63;;;8.40;;
59504;SDS011;45321;53.200;5.814;2022-08-18T00:42:44;13.18;;;8.57;;
59504;SDS011;45321;53.200;5.814;2022-08-18T00:45:15;14.27;;;8.15;;
59504;SDS011;45321;53.200;5.814;2022-08-18T00:47:43;19.23;;;8.48;;
59504;SDS011;45321;53.200;5.814;2022-08-18T00:50:31;20.15;;;8.13;;
59504;SDS011;45321;53.200;5.814;2022-08-18T00:56:04;15.63;;;8.57;;
59504;SDS011;45321;53.200;5.814;2022-08-18T00:58:36;16.00;;;8.43;;
59504;SDS011;45321;53.200;5.814;2022-08-18T01:01:06;14.70;;;8.40;;
59504;SDS011;45321;53.200;5.814;2022-08-18T01:03:35;12.45;;;7.88;;
59504;SDS011;45321;53.200;5.814;2022-08-18T01:06:49;12.65;;;7.22;;
59504;SDS011;45321;53.200;5.814;2022-08-18T01:08:58;16.73;;;8.35;;
59504;SDS011;45321;53.200;5.814;2022-08-18T01:11:24;12.60;;;7.88;;
59504;SDS011;45321;53.200;5.814;2022-08-18T01:13:50;13.05;;;7.35;;
59504;SDS011;45321;53.200;5.814;2022-08-18T01:16:17;11.52;;;7.20;;
59504;SDS011;45321;53.200;5.814;2022-08-18T01:19:02;12.52;;;7.70;;
59504;SDS011;45321;53.200;5.814;2022-08-18T01:21:48;11.87;;;7.50;;
59504;SDS011;45321;53.200;5.814;2022-08-18T01:24:22;11.32;;;7.88;;
59504;SDS011;45321;53.200;5.814;2022-08-18T01:27:11;11.93;;;7.65;;
59504;SDS011;45321;53.200;5.814;2022-08-18T01:29:42;10.02;;;7.43;;
59504;SDS011;45321;53.200;5.814;2022-08-18T01:32:13;12.25;;;7.22;;
59504;SDS011;45321;53.200;5.814;2022-08-18T01:34:45;12.70;;;7.03;;
59504;SDS011;45321;53.200;5.814;2022-08-18T01:37:13;13.90;;;7.40;;
59504;SDS011;45321;53.200;5.814;2022-08-18T01:39:41;11.07;;;7.15;;
59504;SDS011;45321;53.200;5.814;2022-08-18T01:42:08;10.80;;;7.22;;
59504;SDS011;45321;53.200;5.814;2022-08-18T01:44:35;12.90;;;7.57;;
59504;SDS011;45321;53.200;5.814;2022-08-18T01:47:00;10.57;;;7.40;;
59504;SDS011;45321;53.200;5.814;2022-08-18T01:49:26;9.85;;;7.25;;
59504;SDS011;45321;53.200;5.814;2022-08-18T01:51:55;13.85;;;7.68;;
59504;SDS011;45321;53.200;5.814;2022-08-18T01:54:20;10.85;;;7.15;;
59504;SDS011;45321;53.200;5.814;2022-08-18T01:56:46;11.93;;;7.75;;
59504;SDS011;45321;53.200;5.814;2022-08-18T01:59:13;12.05;;;6.93;;
59504;SDS011;45321;53.200;5.814;2022-08-18T02:01:43;15.13;;;7.47;;
59504;SDS011;45321;53.200;5.814;2022-08-18T02:04:11;14.15;;;7.50;;
59504;SDS011;45321;53.200;5.814;2022-08-18T02:06:41;13.10;;;8.07;;
59504;SDS011;45321;53.200;5.814;2022-08-18T02:09:06;14.15;;;7.60;;
59504;SDS011;45321;53.200;5.814;2022-08-18T02:11:32;15.45;;;7.15;;
59504;SDS011;45321;53.200;5.814;2022-08-18T02:13:58;13.88;;;7.35;;
59504;SDS011;45321;53.200;5.814;2022-08-18T02:16:24;15.13;;;7.85;;
59504;SDS011;45321;53.200;5.814;2022-08-18T02:18:50;11.85;;;7.47;;
59504;SDS011;45321;53.200;5.814;2022-08-18T02:21:17;12.00;;;7.40;;
59504;SDS011;45321;53.200;5.814;2022-08-18T02:23:44;13.52;;;7.15;;
59504;SDS011;45321;53.200;5.814;2022-08-18T02:26:12;13.25;;;7.13;;
59504;SDS011;45321;53.200;5.814;2022-08-18T02:28:39;12.23;;;7.05;;
59504;SDS011;45321;53.200;5.814;2022-08-18T02:31:13;13.95;;;7.95;;
59504;SDS011;45321;53.200;5.814;2022-08-18T02:33:41;14.63;;;7.50;;
59504;SDS011;45321;53.200;5.814;2022-08-18T02:36:07;16.95;;;7.72;;
59504;SDS011;45321;53.200;5.814;2022-08-18T02:38:34;14.55;;;7.88;;
59504;SDS011;45321;53.200;5.814;2022-08-18T02:41:02;10.82;;;7.68;;
59504;SDS011;45321;53.200;5.814;2022-08-18T02:43:33;18.00;;;7.53;;
59504;SDS011;45321;53.200;5.814;2022-08-18T02:46:00;11.60;;;7.55;;
59504;SDS011;45321;53.200;5.814;2022-08-18T02:48:26;13.68;;;7.68;;
59504;SDS011;45321;53.200;5.814;2022-08-18T02:53:30;11.95;;;7.63;;
59504;SDS011;45321;53.200;5.814;2022-08-18T02:58:52;14.10;;;7.15;;
59504;SDS011;45321;53.200;5.814;2022-08-18T03:01:27;13.38;;;7.97;;
59504;SDS011;45321;53.200;5.814;2022-08-18T03:03:56;19.05;;;8.00;;
59504;SDS011;45321;53.200;5.814;2022-08-18T03:06:23;13.68;;;7.68;;
59504;SDS011;45321;53.200;5.814;2022-08-18T03:08:50;12.77;;;8.18;;
59504;SDS011;45321;53.200;5.814;2022-08-18T03:11:20;12.98;;;8.32;;
59504;SDS011;45321;53.200;5.814;2022-08-18T03:13:49;10.40;;;7.28;;
59504;SDS011;45321;53.200;5.814;2022-08-18T03:16:15;12.82;;;7.65;;
59504;SDS011;45321;53.200;5.814;2022-08-18T03:18:42;13.23;;;7.10;;
59504;SDS011;45321;53.200;5.814;2022-08-18T03:21:10;11.20;;;7.00;;
59504;SDS011;45321;53.200;5.814;2022-08-18T03:23:38;11.55;;;7.05;;
59504;SDS011;45321;53.200;5.814;2022-08-18T03:26:05;12.05;;;6.93;;
59504;SDS011;45321;53.200;5.814;2022-08-18T03:28:36;10.05;;;7.65;;
59504;SDS011;45321;53.200;5.814;2022-08-18T03:31:02;9.63;;;7.57;;
59504;SDS011;45321;53.200;5.814;2022-08-18T03:33:28;11.38;;;7.35;;
59504;SDS011;45321;53.200;5.814;2022-08-18T03:35:54;9.95;;;7.28;;
59504;SDS011;45321;53.200;5.814;2022-08-18T03:38:20;12.63;;;7.57;;
59504;SDS011;45321;53.200;5.814;2022-08-18T03:40:52;11.82;;;7.57;;
59504;SDS011;45321;53.200;5.814;2022-08-18T03:43:18;10.82;;;7.80;;
59504;SDS011;45321;53.200;5.814;2022-08-18T03:45:43;13.63;;;8.45;;
59504;SDS011;45321;53.200;5.814;2022-08-18T03:48:10;10.05;;;7.47;;
59504;SDS011;45321;53.200;5.814;2022-08-18T03:50:36;12.70;;;7.32;;
59504;SDS011;45321;53.200;5.814;2022-08-18T03:53:02;10.95;;;7.85;;
59504;SDS011;45321;53.200;5.814;2022-08-18T03:55:29;10.00;;;7.45;;
59504;SDS011;45321;53.200;5.814;2022-08-18T03:58:00;13.23;;;7.78;;
59504;SDS011;45321;53.200;5.814;2022-08-18T04:00:29;11.93;;;7.97;;
59504;SDS011;45321;53.200;5.814;2022-08-18T04:02:56;8.95;;;7.07;;
59504;SDS011;45321;53.200;5.814;2022-08-18T04:05:24;11.57;;;7.60;;
59504;SDS011;45321;53.200;5.814;2022-08-18T04:07:50;14.68;;;7.95;;
59504;SDS011;45321;53.200;5.814;2022-08-18T04:10:16;10.63;;;7.50;;
59504;SDS011;45321;53.200;5.814;2022-08-18T04:12:42;12.10;;;8.07;;
59504;SDS011;45321;53.200;5.814;2022-08-18T04:15:08;16.02;;;10.48;;
59504;SDS011;45321;53.200;5.814;2022-08-18T04:17:34;13.45;;;9.30;;
59504;SDS011;45321;53.200;5.814;2022-08-18T04:19:59;12.32;;;8.40;;
59504;SDS011;45321;53.200;5.814;2022-08-18T04:22:25;15.35;;;7.85;;
59504;SDS011;45321;53.200;5.814;2022-08-18T04:24:51;13.40;;;8.50;;
59504;SDS011;45321;53.200;5.814;2022-08-18T04:27:18;12.98;;;7.70;;
59504;SDS011;45321;53.200;5.814;2022-08-18T04:29:46;11.80;;;7.35;;
59504;SDS011;45321;53.200;5.814;2022-08-18T04:32:11;11.85;;;8.07;;
59504;SDS011;45321;53.200;5.814;2022-08-18T04:34:37;11.77;;;7.85;;
59504;SDS011;45321;53.200;5.814;2022-08-18T04:37:03;11.68;;;7.88;;
59504;SDS011;45321;53.200;5.814;2022-08-18T04:39:29;9.77;;;7.72;;
59504;SDS011;45321;53.200;5.814;2022-08-18T04:41:55;13.68;;;7.15;;
59504;SDS011;45321;53.200;5.814;2022-08-18T04:44:20;11.18;;;8.32;;
59504;SDS011;45321;53.200;5.814;2022-08-18T04:46:47;12.75;;;10.30;;
59504;SDS011;45321;53.200;5.814;2022-08-18T04:49:18;10.00;;;8.40;;
59504;SDS011;45321;53.200;5.814;2022-08-18T04:51:49;8.80;;;7.35;;
59504;SDS011;45321;53.200;5.814;2022-08-18T04:54:35;11.10;;;7.65;;
59504;SDS011;45321;53.200;5.814;2022-08-18T04:57:13;12.27;;;7.20;;
59504;SDS011;45321;53.200;5.814;2022-08-18T04:59:42;9.48;;;7.28;;
59504;SDS011;45321;53.200;5.814;2022-08-18T05:02:09;10.27;;;6.78;;
59504;SDS011;45321;53.200;5.814;2022-08-18T05:04:37;9.73;;;6.40;;
59504;SDS011;45321;53.200;5.814;2022-08-18T05:07:05;9.73;;;6.28;;
59504;SDS011;45321;53.200;5.814;2022-08-18T05:09:32;8.50;;;6.07;;
59504;SDS011;45321;53.200;5.814;2022-08-18T05:12:03;10.75;;;5.45;;
59504;SDS011;45321;53.200;5.814;2022-08-18T05:14:30;11.35;;;5.57;;
59504;SDS011;45321;53.200;5.814;2022-08-18T05:16:57;8.55;;;5.00;;
59504;SDS011;45321;53.200;5.814;2022-08-18T05:19:24;12.30;;;4.85;;
59504;SDS011;45321;53.200;5.814;2022-08-18T05:21:50;10.10;;;4.82;;
59504;SDS011;45321;53.200;5.814;2022-08-18T05:24:18;14.77;;;4.85;;
59504;SDS011;45321;53.200;5.814;2022-08-18T05:26:45;9.30;;;3.90;;
59504;SDS011;45321;53.200;5.814;2022-08-18T05:29:15;11.75;;;4.97;;
59504;SDS011;45321;53.200;5.814;2022-08-18T05:31:41;11.18;;;4.32;;
59504;SDS011;45321;53.200;5.814;2022-08-18T05:34:07;10.05;;;4.10;;
59504;SDS011;45321;53.200;5.814;2022-08-18T05:39:14;12.15;;;4.53;;
59504;SDS011;45321;53.200;5.814;2022-08-18T05:42:07;11.60;;;4.00;;
59504;SDS011;45321;53.200;5.814;2022-08-18T05:44:41;9.18;;;3.85;;
59504;SDS011;45321;53.200;5.814;2022-08-18T05:49:44;14.77;;;4.05;;
59504;SDS011;45321;53.200;5.814;2022-08-18T05:52:35;12.27;;;3.95;;
59504;SDS011;45321;53.200;5.814;2022-08-18T05:55:14;10.93;;;3.63;;
59504;SDS011;45321;53.200;5.814;2022-08-18T05:58:08;10.23;;;3.60;;
59504;SDS011;45321;53.200;5.814;2022-08-18T06:00:39;11.52;;;3.80;;
59504;SDS011;45321;53.200;5.814;2022-08-18T06:03:21;9.95;;;3.20;;
59504;SDS011;45321;53.200;5.814;2022-08-18T06:05:54;10.60;;;3.15;;
59504;SDS011;45321;53.200;5.814;2022-08-18T06:08:32;9.45;;;3.42;;
59504;SDS011;45321;53.200;5.814;2022-08-18T06:11:06;9.85;;;3.38;;
59504;SDS011;45321;53.200;5.814;2022-08-18T06:13:39;9.65;;;3.75;;
59504;SDS011;45321;53.200;5.814;2022-08-18T06:16:15;7.32;;;3.17;;
59504;SDS011;45321;53.200;5.814;2022-08-18T06:18:53;8.32;;;3.45;;
59504;SDS011;45321;53.200;5.814;2022-08-18T06:35:44;7.03;;;2.45;;
59504;SDS011;45321;53.200;5.814;2022-08-18T06:41:22;7.30;;;2.50;;
59504;SDS011;45321;53.200;5.814;2022-08-18T06:44:07;4.63;;;2.30;;
59504;SDS011;45321;53.200;5.814;2022-08-18T06:55:08;8.95;;;4.13;;
59504;SDS011;45321;53.200;5.814;2022-08-18T06:57:53;11.05;;;5.68;;
59504;SDS011;45321;53.200;5.814;2022-08-18T07:00:26;10.40;;;4.93;;
59504;SDS011;45321;53.200;5.814;2022-08-18T07:02:55;9.35;;;4.53;;
59504;SDS011;45321;53.200;5.814;2022-08-18T07:05:35;8.35;;;5.13;;
59504;SDS011;45321;53.200;5.814;2022-08-18T07:10:57;8.35;;;3.78;;
59504;SDS011;45321;53.200;5.814;2022-08-18T07:13:42;8.68;;;3.38;;
59504;SDS011;45321;53.200;5.814;2022-08-18T07:16:17;6.78;;;3.45;;
59504;SDS011;45321;53.200;5.814;2022-08-18T07:19:07;5.22;;;2.58;;
59504;SDS011;45321;53.200;5.814;2022-08-18T07:21:40;4.90;;;2.35;;
59504;SDS011;45321;53.200;5.814;2022-08-18T07:24:18;8.25;;;2.45;;
59504;SDS011;45321;53.200;5.814;2022-08-18T07:27:05;3.08;;;2.00;;
59504;SDS011;45321;53.200;5.814;2022-08-18T07:29:37;8.88;;;2.22;;
59504;SDS011;45321;53.200;5.814;2022-08-18T07:32:25;4.80;;;1.80;;
59504;SDS011;45321;53.200;5.814;2022-08-18T07:34:59;3.30;;;1.67;;
59504;SDS011;45321;53.200;5.814;2022-08-18T07:38:12;4.10;;;1.70;;
59504;SDS011;45321;53.200;5.814;2022-08-18T07:40:46;3.65;;;2.08;;
59504;SDS011;45321;53.200;5.814;2022-08-18T07:45:53;5.03;;;2.15;;
59504;SDS011;45321;53.200;5.814;2022-08-18T07:48:29;4.70;;;2.28;;
59504;SDS011;45321;53.200;5.814;2022-08-18T08:08:19;6.68;;;2.42;;
59504;SDS011;45321;53.200;5.814;2022-08-18T08:10:58;4.30;;;2.15;;
59504;SDS011;45321;53.200;5.814;2022-08-18T08:21:22;4.50;;;1.52;;
59504;SDS011;45321;53.200;5.814;2022-08-18T08:24:09;3.83;;;1.85;;
59504;SDS011;45321;53.200;5.814;2022-08-18T08:26:51;3.28;;;1.40;;
59504;SDS011;45321;53.200;5.814;2022-08-18T08:32:11;4.90;;;1.55;;
59504;SDS011;45321;53.200;5.814;2022-08-18T08:34:55;5.10;;;1.60;;
59504;SDS011;45321;53.200;5.814;2022-08-18T08:37:28;4.32;;;1.45;;
59504;SDS011;45321;53.200;5.814;2022-08-18T08:42:44;6.10;;;1.70;;
59504;SDS011;45321;53.200;5.814;2022-08-18T08:45:31;4.63;;;1.95;;
59504;SDS011;45321;53.200;5.814;2022-08-18T08:48:03;6.13;;;1.25;;
59504;SDS011;45321;53.200;5.814;2022-08-18T08:50:33;2.72;;;1.35;;
59504;SDS011;45321;53.200;5.814;2022-08-18T08:53:08;4.00;;;1.40;;
59504;SDS011;45321;53.200;5.814;2022-08-18T08:55:45;3.97;;;1.25;;
59504;SDS011;45321;53.200;5.814;2022-08-18T09:00:55;5.25;;;1.50;;
59504;SDS011;45321;53.200;5.814;2022-08-18T09:08:27;4.18;;;1.52;;
59504;SDS011;45321;53.200;5.814;2022-08-18T09:14:44;4.80;;;1.30;;
59504;SDS011;45321;53.200;5.814;2022-08-18T09:19:45;5.28;;;3.67;;
59504;SDS011;45321;53.200;5.814;2022-08-18T09:22:26;7.95;;;3.88;;
59504;SDS011;45321;53.200;5.814;2022-08-18T09:25:00;4.43;;;1.70;;
59504;SDS011;45321;53.200;5.814;2022-08-18T09:27:43;5.28;;;1.20;;
59504;SDS011;45321;53.200;5.814;2022-08-18T09:38:45;2.45;;;1.00;;
59504;SDS011;45321;53.200;5.814;2022-08-18T09:42:01;4.38;;;1.00;;
59504;SDS011;45321;53.200;5.814;2022-08-18T10:21:28;3.88;;;1.33;;
59504;SDS011;45321;53.200;5.814;2022-08-18T10:24:16;3.38;;;1.00;;
59504;SDS011;45321;53.200;5.814;2022-08-18T10:37:13;4.38;;;1.13;;
59504;SDS011;45321;53.200;5.814;2022-08-18T10:39:50;5.50;;;1.90;;
59504;SDS011;45321;53.200;5.814;2022-08-18T10:42:26;3.45;;;1.20;;
59504;SDS011;45321;53.200;5.814;2022-08-18T10:45:11;2.83;;;0.85;;
59504;SDS011;45321;53.200;5.814;2022-08-18T10:47:38;3.60;;;0.82;;
59504;SDS011;45321;53.200;5.814;2022-08-18T10:50:28;2.53;;;0.88;;
59504;SDS011;45321;53.200;5.814;2022-08-18T10:52:58;2.05;;;0.90;;
59504;SDS011;45321;53.200;5.814;2022-08-18T11:06:39;2.45;;;1.45;;
59504;SDS011;45321;53.200;5.814;2022-08-18T11:09:08;3.33;;;1.67;;
59504;SDS011;45321;53.200;5.814;2022-08-18T11:11:42;2.25;;;1.10;;
59504;SDS011;45321;53.200;5.814;2022-08-18T11:19:52;4.80;;;1.02;;
59504;SDS011;45321;53.200;5.814;2022-08-18T11:22:26;2.65;;;1.10;;
59504;SDS011;45321;53.200;5.814;2022-08-18T11:24:55;2.05;;;0.90;;
59504;SDS011;45321;53.200;5.814;2022-08-18T11:27:28;1.98;;;0.95;;
59504;SDS011;45321;53.200;5.814;2022-08-18T11:29:58;3.40;;;1.13;;
59504;SDS011;45321;53.200;5.814;2022-08-18T11:32:27;1.70;;;0.90;;
59504;SDS011;45321;53.200;5.814;2022-08-18T11:45:29;2.72;;;1.10;;
59504;SDS011;45321;53.200;5.814;2022-08-18T11:48:09;2.13;;;0.90;;
59504;SDS011;45321;53.200;5.814;2022-08-18T11:53:23;2.72;;;1.10;;
59504;SDS011;45321;53.200;5.814;2022-08-18T11:56:02;3.65;;;1.10;;
59504;SDS011;45321;53.200;5.814;2022-08-18T11:58:54;1.35;;;1.00;;
59504;SDS011;45321;53.200;5.814;2022-08-18T12:09:44;3.20;;;1.25;;
59504;SDS011;45321;53.200;5.814;2022-08-18T12:12:13;1.60;;;1.20;;
59504;SDS011;45321;53.200;5.814;2022-08-18T12:17:25;3.22;;;1.17;;
59504;SDS011;45321;53.200;5.814;2022-08-18T12:19:52;3.78;;;1.10;;
59504;SDS011;45321;53.200;5.814;2022-08-18T12:22:19;1.92;;;1.20;;
59504;SDS011;45321;53.200;5.814;2022-08-18T12:24:47;5.00;;;1.25;;
59504;SDS011;45321;53.200;5.814;2022-08-18T12:27:14;1.90;;;1.30;;
59504;SDS011;45321;53.200;5.814;2022-08-18T12:29:42;1.58;;;1.10;;
59504;SDS011;45321;53.200;5.814;2022-08-18T12:32:08;3.00;;;1.17;;
59504;SDS011;45321;53.200;5.814;2022-08-18T12:34:34;1.58;;;0.90;;
59504;SDS011;45321;53.200;5.814;2022-08-18T12:36:59;1.92;;;1.23;;
59504;SDS011;45321;53.200;5.814;2022-08-18T12:39:25;3.42;;;1.00;;
59504;SDS011;45321;53.200;5.814;2022-08-18T12:41:52;1.83;;;1.20;;
59504;SDS011;45321;53.200;5.814;2022-08-18T12:44:19;4.35;;;1.05;;
59504;SDS011;45321;53.200;5.814;2022-08-18T12:46:45;1.75;;;1.00;;
59504;SDS011;45321;53.200;5.814;2022-08-18T12:49:13;3.53;;;1.27;;
59504;SDS011;45321;53.200;5.814;2022-08-18T12:51:42;3.63;;;1.30;;
59504;SDS011;45321;53.200;5.814;2022-08-18T12:54:09;1.92;;;1.10;;
59504;SDS011;45321;53.200;5.814;2022-08-18T12:56:34;2.50;;;1.40;;
59504;SDS011;45321;53.200;5.814;2022-08-18T12:59:01;2.80;;;1.45;;
59504;SDS011;45321;53.200;5.814;2022-08-18T13:01:28;3.28;;;1.77;;
59504;SDS011;45321;53.200;5.814;2022-08-18T13:03:54;3.03;;;1.48;;
59504;SDS011;45321;53.200;5.814;2022-08-18T13:06:21;2.83;;;1.33;;
59504;SDS011;45321;53.200;5.814;2022-08-18T13:08:48;8.10;;;2.35;;
59504;SDS011;45321;53.200;5.814;2022-08-18T13:11:15;2.00;;;1.50;;
59504;SDS011;45321;53.200;5.814;2022-08-18T13:13:43;2.80;;;1.63;;
59504;SDS011;45321;53.200;5.814;2022-08-18T13:16:09;5.13;;;1.58;;
59504;SDS011;45321;53.200;5.814;2022-08-18T13:18:37;6.45;;;2.10;;
59504;SDS011;45321;53.200;5.814;2022-08-18T13:21:10;3.88;;;1.50;;
59504;SDS011;45321;53.200;5.814;2022-08-18T13:23:38;6.53;;;1.50;;
59504;SDS011;45321;53.200;5.814;2022-08-18T13:26:05;3.55;;;1.52;;
59504;SDS011;45321;53.200;5.814;2022-08-18T13:28:34;2.05;;;1.40;;
59504;SDS011;45321;53.200;5.814;2022-08-18T13:31:00;3.08;;;1.40;;
59504;SDS011;45321;53.200;5.814;2022-08-18T13:33:26;3.70;;;1.40;;
59504;SDS011;45321;53.200;5.814;2022-08-18T13:35:53;4.55;;;1.50;;
59504;SDS011;45321;53.200;5.814;2022-08-18T13:38:19;4.18;;;1.35;;
59504;SDS011;45321;53.200;5.814;2022-08-18T13:40:50;7.20;;;1.95;;
59504;SDS011;45321;53.200;5.814;2022-08-18T13:43:19;2.45;;;1.58;;
59504;SDS011;45321;53.200;5.814;2022-08-18T13:45:50;2.85;;;1.50;;
59504;SDS011;45321;53.200;5.814;2022-08-18T13:48:16;4.93;;;1.75;;
59504;SDS011;45321;53.200;5.814;2022-08-18T13:50:42;2.20;;;1.05;;
59504;SDS011;45321;53.200;5.814;2022-08-18T13:53:13;4.03;;;1.55;;
59504;SDS011;45321;53.200;5.814;2022-08-18T13:58:10;2.08;;;1.30;;
59504;SDS011;45321;53.200;5.814;2022-08-18T14:00:37;3.05;;;1.42;;
59504;SDS011;45321;53.200;5.814;2022-08-18T14:03:04;2.28;;;1.70;;
59504;SDS011;45321;53.200;5.814;2022-08-18T14:05:31;3.10;;;1.58;;
59504;SDS011;45321;53.200;5.814;2022-08-18T14:07:58;4.20;;;1.50;;
59504;SDS011;45321;53.200;5.814;2022-08-18T14:10:24;4.18;;;1.60;;
59504;SDS011;45321;53.200;5.814;2022-08-18T14:12:54;8.05;;;1.30;;
59504;SDS011;45321;53.200;5.814;2022-08-18T14:15:21;2.10;;;1.33;;
59504;SDS011;45321;53.200;5.814;2022-08-18T14:17:48;3.72;;;1.15;;
59504;SDS011;45321;53.200;5.814;2022-08-18T14:20:14;5.30;;;1.50;;
59504;SDS011;45321;53.200;5.814;2022-08-18T14:22:59;2.85;;;1.13;;
59504;SDS011;45321;53.200;5.814;2022-08-18T14:25:47;3.72;;;1.63;;
59504;SDS011;45321;53.200;5.814;2022-08-18T14:28:32;2.63;;;1.25;;
59504;SDS011;45321;53.200;5.814;2022-08-18T14:30:59;4.70;;;1.40;;
59504;SDS011;45321;53.200;5.814;2022-08-18T14:33:27;5.15;;;1.33;;
59504;SDS011;45321;53.200;5.814;2022-08-18T14:35:54;3.42;;;1.38;;
59504;SDS011;45321;53.200;5.814;2022-08-18T14:38:20;2.85;;;1.50;;
59504;SDS011;45321;53.200;5.814;2022-08-18T14:40:46;3.63;;;1.63;;
59504;SDS011;45321;53.200;5.814;2022-08-18T14:43:14;4.45;;;1.73;;
59504;SDS011;45321;53.200;5.814;2022-08-18T14:45:42;3.95;;;1.70;;
59504;SDS011;45321;53.200;5.814;2022-08-18T14:48:11;5.50;;;1.42;;
59504;SDS011;45321;53.200;5.814;2022-08-18T14:50:39;2.83;;;1.35;;
59504;SDS011;45321;53.200;5.814;2022-08-18T14:53:07;2.40;;;1.13;;
59504;SDS011;45321;53.200;5.814;2022-08-18T14:55:34;3.58;;;1.20;;
59504;SDS011;45321;53.200;5.814;2022-08-18T14:58:02;3.17;;;1.30;;
59504;SDS011;45321;53.200;5.814;2022-08-18T15:00:28;3.55;;;1.30;;
59504;SDS011;45321;53.200;5.814;2022-08-18T15:02:54;3.55;;;1.92;;
59504;SDS011;45321;53.200;5.814;2022-08-18T15:05:21;3.35;;;1.17;;
59504;SDS011;45321;53.200;5.814;2022-08-18T15:07:47;2.30;;;1.20;;
59504;SDS011;45321;53.200;5.814;2022-08-18T15:10:13;2.95;;;1.20;;
59504;SDS011;45321;53.200;5.814;2022-08-18T15:12:39;3.17;;;1.30;;
59504;SDS011;45321;53.200;5.814;2022-08-18T15:15:06;3.10;;;1.65;;
59504;SDS011;45321;53.200;5.814;2022-08-18T15:17:34;3.10;;;1.30;;
59504;SDS011;45321;53.200;5.814;2022-08-18T15:20:03;4.63;;;1.30;;
59504;SDS011;45321;53.200;5.814;2022-08-18T15:22:30;3.30;;;1.52;;
59504;SDS011;45321;53.200;5.814;2022-08-18T15:25:14;6.05;;;1.63;;
59504;SDS011;45321;53.200;5.814;2022-08-18T15:27:59;3.28;;;1.20;;
59504;SDS011;45321;53.200;5.814;2022-08-18T15:30:26;4.32;;;1.40;;
59504;SDS011;45321;53.200;5.814;2022-08-18T15:32:51;4.10;;;1.48;;
59504;SDS011;45321;53.200;5.814;2022-08-18T15:35:18;3.70;;;1.98;;
59504;SDS011;45321;53.200;5.814;2022-08-18T15:37:44;3.63;;;1.40;;
59504;SDS011;45321;53.200;5.814;2022-08-18T15:40:17;2.45;;;1.58;;
59504;SDS011;45321;53.200;5.814;2022-08-18T15:42:50;4.40;;;1.35;;
59504;SDS011;45321;53.200;5.814;2022-08-18T15:45:28;2.92;;;1.30;;
59504;SDS011;45321;53.200;5.814;2022-08-18T15:47:57;4.65;;;1.77;;
59504;SDS011;45321;53.200;5.814;2022-08-18T15:50:26;4.22;;;1.52;;
59504;SDS011;45321;53.200;5.814;2022-08-18T15:53:00;3.75;;;1.40;;
59504;SDS011;45321;53.200;5.814;2022-08-18T15:55:29;5.80;;;1.60;;
59504;SDS011;45321;53.200;5.814;2022-08-18T15:57:56;4.38;;;1.90;;
59504;SDS011;45321;53.200;5.814;2022-08-18T16:00:22;3.88;;;1.65;;
59504;SDS011;45321;53.200;5.814;2022-08-18T16:02:53;5.63;;;1.70;;
59504;SDS011;45321;53.200;5.814;2022-08-18T16:05:22;4.22;;;2.80;;
59504;SDS011;45321;53.200;5.814;2022-08-18T16:07:56;9.68;;;6.80;;
59504;SDS011;45321;53.200;5.814;2022-08-18T16:10:24;7.70;;;2.40;;
59504;SDS011;45321;53.200;5.814;2022-08-18T16:12:51;4.93;;;1.75;;
59504;SDS011;45321;53.200;5.814;2022-08-18T16:15:18;3.80;;;1.30;;
59504;SDS011;45321;53.200;5.814;2022-08-18T16:17:50;2.83;;;1.75;;
59504;SDS011;45321;53.200;5.814;2022-08-18T16:20:18;7.13;;;1.70;;
59504;SDS011;45321;53.200;5.814;2022-08-18T16:22:45;5.57;;;1.75;;
59504;SDS011;45321;53.200;5.814;2022-08-18T16:25:11;4.72;;;2.05;;
59504;SDS011;45321;53.200;5.814;2022-08-18T16:27:39;4.80;;;2.38;;
59504;SDS011;45321;53.200;5.814;2022-08-18T16:30:06;3.30;;;1.80;;
59504;SDS011;45321;53.200;5.814;2022-08-18T16:32:37;3.42;;;1.70;;
59504;SDS011;45321;53.200;5.814;2022-08-18T16:35:03;3.10;;;1.70;;
59504;SDS011;45321;53.200;5.814;2022-08-18T16:37:29;4.55;;;1.45;;
59504;SDS011;45321;53.200;5.814;2022-08-18T16:39:55;3.30;;;1.55;;
59504;SDS011;45321;53.200;5.814;2022-08-18T16:42:22;4.28;;;1.70;;
59504;SDS011;45321;53.200;5.814;2022-08-18T16:44:47;4.45;;;1.38;;
59504;SDS011;45321;53.200;5.814;2022-08-18T16:47:14;5.07;;;1.58;;
59504;SDS011;45321;53.200;5.814;2022-08-18T16:49:45;3.33;;;1.15;;
59504;SDS011;45321;53.200;5.814;2022-08-18T16:52:15;6.28;;;1.23;;
59504;SDS011;45321;53.200;5.814;2022-08-18T16:54:44;4.10;;;1.48;;
59504;SDS011;45321;53.200;5.814;2022-08-18T16:57:14;3.72;;;1.40;;
59504;SDS011;45321;53.200;5.814;2022-08-18T16:59:59;5.00;;;1.40;;
59504;SDS011;45321;53.200;5.814;2022-08-18T17:02:47;5.88;;;2.00;;
59504;SDS011;45321;53.200;5.814;2022-08-18T17:05:31;5.65;;;1.80;;
59504;SDS011;45321;53.200;5.814;2022-08-18T17:07:58;5.55;;;1.40;;
59504;SDS011;45321;53.200;5.814;2022-08-18T17:10:24;3.72;;;1.15;;
59504;SDS011;45321;53.200;5.814;2022-08-18T17:12:50;5.05;;;1.40;;
59504;SDS011;45321;53.200;5.814;2022-08-18T17:15:16;6.10;;;1.98;;
59504;SDS011;45321;53.200;5.814;2022-08-18T17:17:41;5.05;;;1.65;;
59504;SDS011;45321;53.200;5.814;2022-08-18T17:20:07;6.60;;;1.95;;
59504;SDS011;45321;53.200;5.814;2022-08-18T17:22:33;4.88;;;1.60;;
59504;SDS011;45321;53.200;5.814;2022-08-18T17:24:59;6.57;;;1.73;;
59504;SDS011;45321;53.200;5.814;2022-08-18T17:27:29;4.15;;;1.58;;
59504;SDS011;45321;53.200;5.814;2022-08-18T17:30:10;6.22;;;1.52;;
59504;SDS011;45321;53.200;5.814;2022-08-18T17:37:47;5.10;;;1.42;;
59504;SDS011;45321;53.200;5.814;2022-08-18T17:41:01;8.43;;;1.75;;
59504;SDS011;45321;53.200;5.814;2022-08-18T17:43:14;4.97;;;1.75;;
59504;SDS011;45321;53.200;5.814;2022-08-18T17:45:51;5.65;;;1.58;;
59504;SDS011;45321;53.200;5.814;2022-08-18T17:48:40;4.18;;;2.25;;
59504;SDS011;45321;53.200;5.814;2022-08-18T17:51:25;4.00;;;1.77;;
59504;SDS011;45321;53.200;5.814;2022-08-18T17:53:58;5.70;;;1.30;;
59504;SDS011;45321;53.200;5.814;2022-08-18T17:56:41;6.40;;;1.45;;
59504;SDS011;45321;53.200;5.814;2022-08-18T17:59:13;6.88;;;1.98;;
59504;SDS011;45321;53.200;5.814;2022-08-18T18:04:58;5.10;;;2.53;;
59504;SDS011;45321;53.200;5.814;2022-08-18T18:07:30;5.45;;;1.92;;
59504;SDS011;45321;53.200;5.814;2022-08-18T18:10:05;5.30;;;1.83;;
59504;SDS011;45321;53.200;5.814;2022-08-18T18:12:35;4.25;;;1.40;;
59504;SDS011;45321;53.200;5.814;2022-08-18T18:15:04;4.63;;;1.75;;
59504;SDS011;45321;53.200;5.814;2022-08-18T18:17:34;6.80;;;1.88;;
59504;SDS011;45321;53.200;5.814;2022-08-18T18:23:18;5.38;;;1.80;;
59504;SDS011;45321;53.200;5.814;2022-08-18T18:25:46;5.70;;;1.80;;
59504;SDS011;45321;53.200;5.814;2022-08-18T18:30:54;6.53;;;1.85;;
59504;SDS011;45321;53.200;5.814;2022-08-18T18:33:22;8.68;;;1.85;;